Time;durP1;ratioP1;P1;durP2;ratioP2;P2;SDS_P1;SDS_P2;PMS_P1;PMS_P2;Temp;Humidity;BMP_temperature;BMP_pressure;BME280_temperature;BME280_humidity;BME280_pressure;Samples;Min_cycle;Max_cycle;Signal;HPM_P1;HPM_P2
2024/01/12 00:01:53;;;;;;;0.10;0.10;;;;;;;;;;5011756;28;20429;-89
2024/01/12 00:04:19;;;;;;;0.10;0.10;;;;;;;;;;4995197;28;20547;-89
2024/01/12 00:06:45;;;;;;;0.10;0.10;;;;;;;;;;5011528;28;20201;-90
2024/01/12 00:09:12;;;;;;;0.10;0.10;;;;;;;;;;5011773;28;20053;-89
2024/01/12 00:11:38;;;;;;;0.10;0.10;;;;;;;;;;4995454;28;20372;-89
2024/01/12 00:14:04;;;;;;;0.10;0.10;;;;;;;;;;4995357;28;20478;-89
2024/01/12 00:16:30;;;;;;;0.10;0.10;;;;;;;;;;4979125;28;20041;-91
2024/01/12 00:18:56;;;;;;;0.10;0.10;;;;;;;;;;4979470;28;20038;-90
2024/01/12 00:21:22;;;;;;;0.10;0.10;;;;;;;;;;4995475;28;20110;-90
2024/01/12 00:23:48;;;;;;;0.10;0.10;;;;;;;;;;4995570;28;20128;-90
2024/01/12 00:26:14;;;;;;;0.10;0.10;;;;;;;;;;4995848;28;20042;-90
2024/01/12 00:28:40;;;;;;;0.10;0.10;;;;;;;;;;4995397;28;20045;-91
2024/01/12 00:31:06;;;;;;;0.10;0.10;;;;;;;;;;4979360;28;20137;-90
2024/01/12 00:33:32;;;;;;;0.10;0.10;;;;;;;;;;4995509;28;20473;-90
2024/01/12 00:35:58;;;;;;;0.10;0.10;;;;;;;;;;4979836;28;20042;-90
2024/01/12 00:38:24;;;;;;;0.10;0.10;;;;;;;;;;4996096;28;20038;-90
2024/01/12 00:40:50;;;;;;;0.10;0.10;;;;;;;;;;4979381;28;20038;-89
2024/01/12 00:43:17;;;;;;;0.10;0.10;;;;;;;;;;4995402;28;20049;-89
2024/01/12 00:45:43;;;;;;;0.10;0.10;;;;;;;;;;4978932;28;20504;-89
2024/01/12 00:48:09;;;;;;;0.10;0.10;;;;;;;;;;4994949;28;20109;-89
2024/01/12 00:50:35;;;;;;;0.10;0.10;;;;;;;;;;4995073;28;20401;-90
2024/01/12 00:53:01;;;;;;;0.10;0.10;;;;;;;;;;5011354;28;20080;-90
2024/01/12 00:55:27;;;;;;;0.10;0.10;;;;;;;;;;4994974;28;20068;-90
2024/01/12 00:57:53;;;;;;;0.20;0.20;;;;;;;;;;4978766;28;20042;-90
2024/01/12 01:00:20;;;;;;;0.10;0.10;;;;;;;;;;4978792;28;20171;-91
2024/01/12 01:02:46;;;;;;;0.10;0.10;;;;;;;;;;5011279;28;20038;-90
2024/01/12 01:05:12;;;;;;;0.10;0.10;;;;;;;;;;5011434;28;20049;-89
2024/01/12 01:07:38;;;;;;;0.10;0.10;;;;;;;;;;5011066;28;20052;-89
2024/01/12 01:10:04;;;;;;;1.55;0.25;;;;;;;;;;4978611;28;20129;-89
2024/01/12 01:12:30;;;;;;;0.10;0.10;;;;;;;;;;5011393;28;20037;-90
2024/01/12 01:14:56;;;;;;;0.10;0.10;;;;;;;;;;4980408;28;20112;-89
2024/01/12 01:17:22;;;;;;;0.20;0.20;;;;;;;;;;4998585;28;20049;-89
2024/01/12 01:19:48;;;;;;;0.10;0.10;;;;;;;;;;4998472;28;20038;-90
2024/01/12 01:22:14;;;;;;;0.30;0.30;;;;;;;;;;4998485;28;20126;-89
2024/01/12 01:24:40;;;;;;;0.10;0.10;;;;;;;;;;4998513;28;20152;-89
2024/01/12 01:27:07;;;;;;;0.10;0.10;;;;;;;;;;4998329;28;20037;-89
2024/01/12 01:29:33;;;;;;;0.10;0.10;;;;;;;;;;4998381;28;20096;-89
2024/01/12 01:31:59;;;;;;;0.10;0.10;;;;;;;;;;4998080;28;20038;-89
2024/01/12 01:34:25;;;;;;;0.10;0.10;;;;;;;;;;4998070;28;20038;-89
2024/01/12 01:36:51;;;;;;;0.10;0.10;;;;;;;;;;4981594;28;20128;-89
2024/01/12 01:39:17;;;;;;;0.10;0.10;;;;;;;;;;4982178;28;20192;-89
2024/01/12 01:41:43;;;;;;;0.10;0.10;;;;;;;;;;4981741;28;20042;-88
2024/01/12 01:44:09;;;;;;;0.10;0.10;;;;;;;;;;4997746;28;20385;-88
2024/01/12 01:46:35;;;;;;;0.10;0.10;;;;;;;;;;4997693;28;20038;-89
2024/01/12 01:49:01;;;;;;;0.10;0.10;;;;;;;;;;4981871;28;20408;-88
2024/01/12 01:51:27;;;;;;;0.10;0.10;;;;;;;;;;5013808;28;20077;-89
2024/01/12 01:53:53;;;;;;;0.10;0.10;;;;;;;;;;5013711;28;20555;-89
2024/01/12 01:56:19;;;;;;;0.10;0.10;;;;;;;;;;4997966;28;20369;-89
2024/01/12 01:58:45;;;;;;;0.20;0.20;;;;;;;;;;4997391;28;20042;-89
2024/01/12 02:01:11;;;;;;;0.10;0.10;;;;;;;;;;4981283;28;20053;-89
2024/01/12 02:03:38;;;;;;;0.10;0.10;;;;;;;;;;4997582;28;20049;-89
2024/01/12 02:06:04;;;;;;;0.10;0.10;;;;;;;;;;4997628;28;20042;-89
2024/01/12 02:08:30;;;;;;;0.10;0.10;;;;;;;;;;4997597;28;20041;-90
2024/01/12 02:10:56;;;;;;;0.10;0.10;;;;;;;;;;4997583;28;20046;-90
2024/01/12 02:13:22;;;;;;;0.30;0.30;;;;;;;;;;4981528;28;20069;-90
2024/01/12 02:15:48;;;;;;;0.10;0.10;;;;;;;;;;4997795;28;20052;-89
2024/01/12 02:18:14;;;;;;;0.13;0.13;;;;;;;;;;4997263;28;20042;-89
2024/01/12 02:20:41;;;;;;;0.20;0.20;;;;;;;;;;4997105;28;20041;-89
2024/01/12 02:23:07;;;;;;;0.10;0.10;;;;;;;;;;4997310;28;20045;-89
2024/01/12 02:25:33;;;;;;;0.10;0.10;;;;;;;;;;4996631;28;20495;-89
2024/01/12 02:27:59;;;;;;;0.10;0.10;;;;;;;;;;4996799;28;20133;-89
2024/01/12 02:30:25;;;;;;;0.32;0.22;;;;;;;;;;4997217;28;20121;-92
2024/01/12 02:32:51;;;;;;;0.10;0.10;;;;;;;;;;4997878;28;20045;-91
2024/01/12 02:35:17;;;;;;;0.10;0.10;;;;;;;;;;4981539;28;20044;-91
2024/01/12 02:37:44;;;;;;;0.10;0.10;;;;;;;;;;4997980;28;20112;-91
2024/01/12 02:40:10;;;;;;;0.10;0.10;;;;;;;;;;4997583;28;20093;-91
2024/01/12 02:42:36;;;;;;;0.10;0.10;;;;;;;;;;4997641;28;20041;-92
2024/01/12 02:45:02;;;;;;;0.10;0.10;;;;;;;;;;4997762;28;20298;-92
2024/01/12 02:47:28;;;;;;;0.10;0.10;;;;;;;;;;4997555;28;20038;-91
2024/01/12 02:49:54;;;;;;;0.10;0.10;;;;;;;;;;4981081;28;20046;-90
2024/01/12 02:52:20;;;;;;;0.10;0.10;;;;;;;;;;4997271;28;20046;-91
2024/01/12 02:54:46;;;;;;;0.10;0.10;;;;;;;;;;4996873;28;20064;-90
2024/01/12 02:57:12;;;;;;;0.10;0.10;;;;;;;;;;4980697;28;20046;-90
2024/01/12 02:59:38;;;;;;;0.10;0.10;;;;;;;;;;5013125;28;20040;-90
2024/01/12 03:02:04;;;;;;;0.10;0.10;;;;;;;;;;4996886;28;20392;-90
2024/01/12 03:04:30;;;;;;;0.10;0.10;;;;;;;;;;4996801;28;20045;-91
2024/01/12 03:06:56;;;;;;;0.10;0.10;;;;;;;;;;4997291;28;20041;-90
2024/01/12 03:09:23;;;;;;;0.10;0.10;;;;;;;;;;4980669;28;20033;-90
2024/01/12 03:11:49;;;;;;;0.10;0.10;;;;;;;;;;4980695;28;20038;-90
2024/01/12 03:14:15;;;;;;;0.10;0.10;;;;;;;;;;4996568;28;20548;-90
2024/01/12 03:16:41;;;;;;;0.10;0.10;;;;;;;;;;4996597;28;20494;-90
2024/01/12 03:19:07;;;;;;;0.10;0.10;;;;;;;;;;4996394;28;20045;-89
2024/01/12 03:21:33;;;;;;;0.10;0.10;;;;;;;;;;4996534;28;20041;-90
2024/01/12 03:23:59;;;;;;;0.10;0.10;;;;;;;;;;4980050;28;20041;-89
2024/01/12 03:26:25;;;;;;;0.10;0.10;;;;;;;;;;4996341;28;20056;-90
2024/01/12 03:28:50;;;;;;;0.10;0.10;;;;;;;;;;4996340;28;20034;-90
2024/01/12 03:31:19;;;;;;;0.10;0.10;;;;;;;;;;5012753;28;20127;-89
2024/01/12 03:33:45;;;;;;;0.10;0.10;;;;;;;;;;4980234;28;20042;-90
2024/01/12 03:36:11;;;;;;;0.10;0.10;;;;;;;;;;4996177;28;20196;-90
2024/01/12 03:38:37;;;;;;;0.10;0.10;;;;;;;;;;4995728;28;20053;-90
2024/01/12 03:41:05;;;;;;;0.10;0.10;;;;;;;;;;4995998;28;20045;-90
2024/01/12 03:43:31;;;;;;;0.10;0.10;;;;;;;;;;4980205;28;20044;-91
2024/01/12 03:45:57;;;;;;;0.10;0.10;;;;;;;;;;4996258;28;20128;-90
2024/01/12 03:48:23;;;;;;;0.10;0.10;;;;;;;;;;4996210;28;20515;-90
2024/01/12 03:50:49;;;;;;;0.10;0.10;;;;;;;;;;4995764;28;20128;-90
2024/01/12 03:53:15;;;;;;;0.10;0.10;;;;;;;;;;4995815;28;20133;-90
2024/01/12 03:55:41;;;;;;;0.10;0.10;;;;;;;;;;4995644;28;20497;-90
2024/01/12 03:58:07;;;;;;;0.10;0.10;;;;;;;;;;4979620;28;20096;-91
2024/01/12 04:00:33;;;;;;;0.10;0.10;;;;;;;;;;4995849;28;20410;-90
2024/01/12 04:02:59;;;;;;;0.10;0.10;;;;;;;;;;4995716;28;20041;-90
2024/01/12 04:05:25;;;;;;;0.10;0.10;;;;;;;;;;4995682;28;20045;-89
2024/01/12 04:07:51;;;;;;;0.10;0.10;;;;;;;;;;4995475;28;20435;-90
2024/01/12 04:10:17;;;;;;;0.10;0.10;;;;;;;;;;4995910;28;20180;-90
2024/01/12 04:12:44;;;;;;;0.10;0.10;;;;;;;;;;5012336;28;20512;-91
2024/01/12 04:15:10;;;;;;;0.10;0.10;;;;;;;;;;4995773;28;20073;-90
2024/01/12 04:17:36;;;;;;;0.10;0.10;;;;;;;;;;4995587;28;20042;-91
2024/01/12 04:20:02;;;;;;;0.10;0.10;;;;;;;;;;5012031;28;20042;-90
2024/01/12 04:22:28;;;;;;;0.10;0.10;;;;;;;;;;4979510;28;20053;-90
2024/01/12 04:24:54;;;;;;;0.20;0.20;;;;;;;;;;5011902;28;20461;-90
2024/01/12 04:27:20;;;;;;;0.10;0.10;;;;;;;;;;4995647;28;20053;-90
2024/01/12 04:29:46;;;;;;;0.13;0.13;;;;;;;;;;4995607;28;20045;-90
2024/01/12 04:32:12;;;;;;;0.10;0.10;;;;;;;;;;4979384;28;20100;-90
2024/01/12 04:34:38;;;;;;;0.10;0.10;;;;;;;;;;4995535;28;20046;-90
2024/01/12 04:37:05;;;;;;;0.10;0.10;;;;;;;;;;4995403;28;20054;-90
2024/01/12 04:39:31;;;;;;;0.10;0.10;;;;;;;;;;4995576;28;20065;-89
2024/01/12 04:41:57;;;;;;;0.10;0.10;;;;;;;;;;4995581;28;20467;-89
2024/01/12 04:44:23;;;;;;;0.10;0.10;;;;;;;;;;4979276;28;20121;-89
2024/01/12 04:46:49;;;;;;;0.13;0.13;;;;;;;;;;4979152;28;20034;-90
2024/01/12 04:49:15;;;;;;;0.10;0.10;;;;;;;;;;4979733;28;20073;-90
2024/01/12 04:51:41;;;;;;;0.10;0.10;;;;;;;;;;4982949;28;20476;-90
2024/01/12 04:54:08;;;;;;;0.10;0.10;;;;;;;;;;4982794;28;20100;-89
2024/01/12 04:56:34;;;;;;;0.10;0.10;;;;;;;;;;5015198;28;20053;-90
2024/01/12 04:59:00;;;;;;;0.10;0.10;;;;;;;;;;4998969;28;20041;-89
2024/01/12 05:01:26;;;;;;;0.10;0.10;;;;;;;;;;5014899;28;20046;-90
2024/01/12 05:03:52;;;;;;;0.10;0.10;;;;;;;;;;4999214;28;20257;-89
2024/01/12 05:06:18;;;;;;;0.10;0.10;;;;;;;;;;4998890;28;20045;-89
2024/01/12 05:08:44;;;;;;;0.10;0.10;;;;;;;;;;4998858;28;20041;-89
2024/01/12 05:11:10;;;;;;;0.10;0.10;;;;;;;;;;4998580;28;20050;-90
2024/01/12 05:13:37;;;;;;;0.10;0.10;;;;;;;;;;4998687;28;20053;-89
2024/01/12 05:16:03;;;;;;;0.10;0.10;;;;;;;;;;4982672;28;20366;-91
2024/01/12 05:18:29;;;;;;;0.10;0.10;;;;;;;;;;4999154;28;20111;-90
2024/01/12 05:20:55;;;;;;;0.10;0.10;;;;;;;;;;4982745;28;20129;-90
2024/01/12 05:23:21;;;;;;;0.10;0.10;;;;;;;;;;4982755;28;20069;-91
2024/01/12 05:25:47;;;;;;;0.10;0.10;;;;;;;;;;4999031;28;20034;-91
2024/01/12 05:28:13;;;;;;;0.10;0.10;;;;;;;;;;4982947;28;20041;-90
2024/01/12 05:30:39;;;;;;;0.10;0.10;;;;;;;;;;4999148;28;20108;-91
2024/01/12 05:33:05;;;;;;;0.10;0.10;;;;;;;;;;4998841;28;20461;-91
2024/01/12 05:35:31;;;;;;;0.10;0.10;;;;;;;;;;5015086;28;20046;-91
2024/01/12 05:37:57;;;;;;;0.10;0.10;;;;;;;;;;4982544;28;20041;-92
2024/01/12 05:40:23;;;;;;;0.10;0.10;;;;;;;;;;5015156;28;20103;-91
2024/01/12 05:42:49;;;;;;;0.10;0.10;;;;;;;;;;4982198;28;20557;-91
2024/01/12 05:45:15;;;;;;;0.10;0.10;;;;;;;;;;4982300;28;20489;-90
2024/01/12 05:47:41;;;;;;;0.10;0.10;;;;;;;;;;5014556;28;20096;-91
2024/01/12 05:50:07;;;;;;;0.10;0.10;;;;;;;;;;4998127;28;20045;-90
2024/01/12 05:52:34;;;;;;;0.10;0.10;;;;;;;;;;4982130;28;20048;-91
2024/01/12 05:55:00;;;;;;;0.10;0.10;;;;;;;;;;4982010;28;20200;-90
2024/01/12 05:57:26;;;;;;;0.10;0.10;;;;;;;;;;4981987;28;20104;-90
2024/01/12 05:59:53;;;;;;;0.10;0.10;;;;;;;;;;4981736;28;20048;-91
2024/01/12 06:02:19;;;;;;;0.10;0.10;;;;;;;;;;4983732;28;20091;-88
2024/01/12 06:04:45;;;;;;;0.10;0.10;;;;;;;;;;5014136;28;20034;-90
2024/01/12 06:07:11;;;;;;;0.10;0.10;;;;;;;;;;4982146;28;20447;-90
2024/01/12 06:09:37;;;;;;;0.10;0.10;;;;;;;;;;4997675;28;20091;-89
2024/01/12 06:12:04;;;;;;;0.10;0.10;;;;;;;;;;4981691;28;20095;-90
2024/01/12 06:14:30;;;;;;;0.10;0.10;;;;;;;;;;5014142;28;20135;-90
2024/01/12 06:16:55;;;;;;;0.10;0.10;;;;;;;;;;4998257;28;20109;-90
2024/01/12 06:19:21;;;;;;;0.10;0.10;;;;;;;;;;4997574;28;20099;-90
2024/01/12 06:21:47;;;;;;;0.10;0.10;;;;;;;;;;4997765;28;20044;-90
2024/01/12 06:24:13;;;;;;;0.10;0.10;;;;;;;;;;4997480;28;20057;-90
2024/01/12 06:26:42;;;;;;;0.10;0.10;;;;;;;;;;4981205;28;20045;-89
2024/01/12 06:29:08;;;;;;;0.10;0.10;;;;;;;;;;4997543;28;20112;-91
2024/01/12 06:31:34;;;;;;;0.10;0.10;;;;;;;;;;4997342;28;20053;-91
2024/01/12 06:34:00;;;;;;;0.10;0.10;;;;;;;;;;4980820;28;20533;-90
2024/01/12 06:36:26;;;;;;;0.10;0.10;;;;;;;;;;4996950;28;20092;-90
2024/01/12 06:38:52;;;;;;;0.10;0.10;;;;;;;;;;4980797;28;20049;-90
2024/01/12 06:41:18;;;;;;;0.10;0.10;;;;;;;;;;4996707;28;20115;-90
2024/01/12 06:43:44;;;;;;;0.10;0.10;;;;;;;;;;4980893;28;20045;-93
2024/01/12 06:46:10;;;;;;;0.10;0.10;;;;;;;;;;4997381;28;20116;-92
2024/01/12 06:48:37;;;;;;;0.10;0.10;;;;;;;;;;4997360;28;20081;-91
2024/01/12 06:51:03;;;;;;;0.10;0.10;;;;;;;;;;5013515;28;20374;-91
2024/01/12 06:53:29;;;;;;;0.10;0.10;;;;;;;;;;4997195;28;20057;-92
2024/01/12 06:55:55;;;;;;;0.10;0.10;;;;;;;;;;4980769;28;20057;-92
2024/01/12 06:58:21;;;;;;;0.10;0.10;;;;;;;;;;4981315;28;20447;-92
2024/01/12 07:00:47;;;;;;;0.10;0.10;;;;;;;;;;4981075;28;20120;-93
2024/01/12 07:03:14;;;;;;;0.10;0.10;;;;;;;;;;4997097;28;20041;-93
2024/01/12 07:05:40;;;;;;;0.10;0.10;;;;;;;;;;5014049;28;20050;-92
2024/01/12 07:08:07;;;;;;;0.10;0.10;;;;;;;;;;4981531;28;20046;-93
2024/01/12 07:10:33;;;;;;;0.10;0.10;;;;;;;;;;4997175;28;20049;-93
2024/01/12 07:12:59;;;;;;;0.10;0.10;;;;;;;;;;4980151;28;20042;-93
2024/01/12 07:15:25;;;;;;;0.10;0.10;;;;;;;;;;5013249;28;20132;-92
2024/01/12 07:17:51;;;;;;;0.10;0.10;;;;;;;;;;4980779;28;20489;-94
2024/01/12 07:20:17;;;;;;;0.10;0.10;;;;;;;;;;4996776;28;20034;-94
2024/01/12 07:22:45;;;;;;;0.10;0.10;;;;;;;;;;5013382;28;20037;-93
2024/01/12 07:25:11;;;;;;;0.10;0.10;;;;;;;;;;4980780;28;20048;-92
2024/01/12 07:27:37;;;;;;;0.10;0.10;;;;;;;;;;4996926;28;20090;-92
2024/01/12 07:30:03;;;;;;;0.10;0.10;;;;;;;;;;4996231;28;20053;-93
2024/01/12 07:32:34;;;;;;;0.10;0.10;;;;;;;;;;5004845;28;20131;-91
2024/01/12 07:37:36;;;;;;;0.10;0.10;;;;;;;;;;5064213;28;20044;-92
2024/01/12 07:40:12;;;;;;;0.10;0.10;;;;;;;;;;5038654;28;20053;-87
2024/01/12 07:42:47;;;;;;;0.30;0.30;;;;;;;;;;5020682;28;20041;-96
2024/01/12 07:45:13;;;;;;;0.10;0.10;;;;;;;;;;5005625;28;20033;-93
2024/01/12 07:47:39;;;;;;;0.10;0.10;;;;;;;;;;5019950;28;20045;-93
2024/01/12 07:50:06;;;;;;;0.10;0.10;;;;;;;;;;5004035;28;20080;-88
2024/01/12 07:52:32;;;;;;;0.10;0.10;;;;;;;;;;5018051;28;20045;-89
2024/01/12 07:54:58;;;;;;;0.10;0.10;;;;;;;;;;5034565;28;20122;-89
2024/01/12 07:57:24;;;;;;;0.10;0.10;;;;;;;;;;5002077;28;20048;-87
2024/01/12 07:59:52;;;;;;;0.10;0.10;;;;;;;;;;5020184;28;20561;-95
2024/01/12 08:02:18;;;;;;;0.13;0.13;;;;;;;;;;5019922;28;20082;-90
2024/01/12 08:04:44;;;;;;;0.10;0.10;;;;;;;;;;5019286;28;20040;-92
2024/01/12 08:07:10;;;;;;;0.10;0.10;;;;;;;;;;5002888;28;20033;-92
2024/01/12 08:09:36;;;;;;;0.10;0.10;;;;;;;;;;5019235;28;20118;-92
2024/01/12 08:12:02;;;;;;;0.32;0.32;;;;;;;;;;5003245;28;20291;-93
2024/01/12 08:14:28;;;;;;;0.10;0.10;;;;;;;;;;5019463;28;20068;-91
2024/01/12 08:16:54;;;;;;;0.10;0.10;;;;;;;;;;5003433;28;20480;-93
2024/01/12 08:19:21;;;;;;;0.10;0.10;;;;;;;;;;5002802;28;20048;-92
2024/01/12 08:21:47;;;;;;;0.10;0.10;;;;;;;;;;5003005;28;20044;-92
2024/01/12 08:24:13;;;;;;;0.10;0.10;;;;;;;;;;5036681;28;20396;-89
2024/01/12 08:26:39;;;;;;;0.10;0.10;;;;;;;;;;5034720;28;20262;-88
2024/01/12 08:29:05;;;;;;;0.10;0.10;;;;;;;;;;5189390;22;20046;-95
2024/01/12 08:34:07;;;;;;;0.10;0.10;;;;;;;;;;5146519;22;20432;-91
2024/01/12 08:36:33;;;;;;;0.75;0.40;;;;;;;;;;5035193;28;20049;-90
2024/01/12 08:38:59;;;;;;;0.10;0.10;;;;;;;;;;5034994;28;20049;-92
2024/01/12 08:41:24;;;;;;;0.10;0.10;;;;;;;;;;5034659;28;20043;-88
2024/01/12 08:43:53;;;;;;;0.10;0.10;;;;;;;;;;5034079;28;20049;-88
2024/01/12 08:46:19;;;;;;;0.10;0.10;;;;;;;;;;5018017;28;20044;-88
2024/01/12 08:48:45;;;;;;;0.10;0.10;;;;;;;;;;5032620;28;20076;-89
2024/01/12 08:51:11;;;;;;;0.10;0.10;;;;;;;;;;5034160;28;20052;-88
2024/01/12 08:53:37;;;;;;;0.20;0.20;;;;;;;;;;5048994;28;20053;-89
2024/01/12 08:56:03;;;;;;;0.10;0.10;;;;;;;;;;5033357;28;20143;-88
2024/01/12 08:58:29;;;;;;;0.10;0.10;;;;;;;;;;5013246;28;20400;-88
2024/01/12 09:00:55;;;;;;;0.10;0.10;;;;;;;;;;5014057;28;20041;-89
2024/01/12 09:03:21;;;;;;;0.10;0.10;;;;;;;;;;5021853;28;20041;-90
2024/01/12 09:05:47;;;;;;;0.10;0.10;;;;;;;;;;5016561;28;20048;-89
2024/01/12 09:08:13;;;;;;;0.10;0.10;;;;;;;;;;5033950;28;20044;-89
2024/01/12 09:10:39;;;;;;;0.10;0.10;;;;;;;;;;5049404;28;20179;-88
2024/01/12 09:13:05;;;;;;;0.10;0.10;;;;;;;;;;5033578;28;20037;-89
2024/01/12 09:15:32;;;;;;;0.10;0.10;;;;;;;;;;5032983;28;20060;-89
2024/01/12 09:17:58;;;;;;;0.10;0.10;;;;;;;;;;5050315;28;20048;-89
2024/01/12 09:20:24;;;;;;;0.10;0.10;;;;;;;;;;5033809;28;20036;-91
2024/01/12 09:22:50;;;;;;;0.10;0.10;;;;;;;;;;5049931;28;20043;-89
2024/01/12 09:25:16;;;;;;;0.10;0.10;;;;;;;;;;5033377;28;20484;-89
2024/01/12 09:27:42;;;;;;;0.10;0.10;;;;;;;;;;5049463;28;20041;-89
2024/01/12 09:30:08;;;;;;;0.10;0.10;;;;;;;;;;5033118;28;20128;-94
2024/01/12 09:32:34;;;;;;;0.10;0.10;;;;;;;;;;5018900;28;20053;-92
2024/01/12 09:35:00;;;;;;;0.10;0.10;;;;;;;;;;5035612;28;20167;-92
2024/01/12 09:37:26;;;;;;;0.10;0.10;;;;;;;;;;5037719;28;20075;-88
2024/01/12 09:39:53;;;;;;;0.10;0.10;;;;;;;;;;5036844;28;20040;-88
2024/01/12 09:42:19;;;;;;;0.10;0.10;;;;;;;;;;5053374;28;20148;-92
2024/01/12 09:44:47;;;;;;;0.10;0.10;;;;;;;;;;5035014;28;20385;-89
2024/01/12 09:47:16;;;;;;;0.10;0.10;;;;;;;;;;5053355;28;20037;-89
2024/01/12 09:49:43;;;;;;;0.10;0.10;;;;;;;;;;5036747;28;20033;-88
2024/01/12 09:52:09;;;;;;;0.10;0.10;;;;;;;;;;5037223;28;20503;-89
2024/01/12 09:54:35;;;;;;;0.10;0.10;;;;;;;;;;5036693;28;20041;-88
2024/01/12 09:57:03;;;;;;;0.10;0.10;;;;;;;;;;5037647;28;20387;-90
2024/01/12 09:59:29;;;;;;;0.10;0.10;;;;;;;;;;5020947;28;20396;-90
2024/01/12 10:01:55;;;;;;;0.10;0.10;;;;;;;;;;5037121;28;20037;-89
2024/01/12 10:04:21;;;;;;;0.10;0.10;;;;;;;;;;5036657;28;20495;-90
2024/01/12 10:06:47;;;;;;;0.10;0.10;;;;;;;;;;5036995;28;20096;-89
2024/01/12 10:09:13;;;;;;;0.10;0.10;;;;;;;;;;5053442;28;20525;-90
2024/01/12 10:11:40;;;;;;;0.10;0.10;;;;;;;;;;5053173;28;20037;-90
2024/01/12 10:14:06;;;;;;;0.10;0.10;;;;;;;;;;5053218;28;20246;-90
2024/01/12 10:16:32;;;;;;;0.10;0.10;;;;;;;;;;5036690;28;20136;-90
2024/01/12 10:18:59;;;;;;;0.10;0.10;;;;;;;;;;5052928;28;20044;-90
2024/01/12 10:21:25;;;;;;;0.10;0.10;;;;;;;;;;5036641;28;20037;-87
2024/01/12 10:24:02;;;;;;;0.10;0.10;;;;;;;;;;5036631;28;20075;-86
2024/01/12 10:26:28;;;;;;;0.10;0.10;;;;;;;;;;5052266;28;20048;-86
2024/01/12 10:28:54;;;;;;;0.10;0.10;;;;;;;;;;5019570;28;20041;-86
2024/01/12 10:31:20;;;;;;;0.10;0.10;;;;;;;;;;5035736;28;20083;-86
2024/01/12 10:33:46;;;;;;;0.10;0.10;;;;;;;;;;5052547;28;20487;-86
2024/01/12 10:36:15;;;;;;;0.10;0.10;;;;;;;;;;5036853;28;20076;-89
2024/01/12 10:38:41;;;;;;;0.10;0.10;;;;;;;;;;5037763;28;20083;-89
2024/01/12 10:41:07;;;;;;;0.10;0.10;;;;;;;;;;5036516;28;20086;-89
2024/01/12 10:43:37;;;;;;;0.10;0.10;;;;;;;;;;5035755;28;20073;-89
2024/01/12 10:46:06;;;;;;;0.10;0.10;;;;;;;;;;5051806;28;20041;-87
2024/01/12 10:48:32;;;;;;;0.10;0.10;;;;;;;;;;5018396;28;20037;-86
2024/01/12 10:51:00;;;;;;;0.10;0.10;;;;;;;;;;5035730;28;20395;-86
2024/01/12 10:53:34;;;;;;;0.10;0.10;;;;;;;;;;5052356;28;20120;-85
2024/01/12 10:56:00;;;;;;;0.10;0.10;;;;;;;;;;5035790;28;20036;-89
2024/01/12 10:58:27;;;;;;;0.10;0.10;;;;;;;;;;5019252;28;20135;-89
2024/01/12 11:00:53;;;;;;;0.10;0.10;;;;;;;;;;5018967;28;20036;-85
2024/01/12 11:03:19;;;;;;;0.10;0.10;;;;;;;;;;5036814;28;20040;-85
2024/01/12 11:05:45;;;;;;;0.10;0.10;;;;;;;;;;5035609;28;20033;-87
2024/01/12 11:08:12;;;;;;;0.13;0.13;;;;;;;;;;5035995;28;20044;-88
2024/01/12 11:10:49;;;;;;;0.10;0.10;;;;;;;;;;5052038;28;20037;-87
2024/01/12 11:13:16;;;;;;;0.10;0.10;;;;;;;;;;5022726;28;20562;-90
2024/01/12 11:15:42;;;;;;;0.10;0.10;;;;;;;;;;5036517;28;20421;-90
2024/01/12 11:18:14;;;;;;;0.10;0.10;;;;;;;;;;5052725;28;20048;-91
2024/01/12 11:20:40;;;;;;;0.30;0.30;;;;;;;;;;5036817;28;20041;-90
2024/01/12 11:23:06;;;;;;;0.10;0.10;;;;;;;;;;5019363;28;20397;-89
2024/01/12 11:25:32;;;;;;;0.10;0.10;;;;;;;;;;5037141;28;20037;-90
2024/01/12 11:28:00;;;;;;;0.10;0.10;;;;;;;;;;5036524;28;20041;-90
2024/01/12 11:30:29;;;;;;;0.10;0.10;;;;;;;;;;5035397;28;20040;-90
2024/01/12 11:33:04;;;;;;;0.10;0.10;;;;;;;;;;5035738;28;20404;-91
2024/01/12 11:35:31;;;;;;;0.10;0.10;;;;;;;;;;5019002;28;20066;-91
2024/01/12 11:38:00;;;;;;;0.10;0.10;;;;;;;;;;5019550;28;20076;-91
2024/01/12 11:40:26;;;;;;;0.10;0.10;;;;;;;;;;5051987;28;20112;-92
2024/01/12 11:42:52;;;;;;;0.10;0.10;;;;;;;;;;5035655;28;20175;-91
2024/01/12 11:45:18;;;;;;;0.10;0.10;;;;;;;;;;5019308;28;20041;-91
2024/01/12 11:47:44;;;;;;;0.10;0.10;;;;;;;;;;5035581;28;20056;-91
2024/01/12 11:50:11;;;;;;;0.10;0.10;;;;;;;;;;5051908;28;20211;-91
2024/01/12 11:52:38;;;;;;;0.10;0.10;;;;;;;;;;5036007;28;20048;-91
2024/01/12 11:55:07;;;;;;;0.10;0.10;;;;;;;;;;5035087;28;20041;-92
2024/01/12 11:57:33;;;;;;;1.45;0.20;;;;;;;;;;5035379;28;20045;-92
2024/01/12 11:59:59;;;;;;;0.10;0.10;;;;;;;;;;5035070;28;20461;-92
2024/01/12 12:02:25;;;;;;;0.10;0.10;;;;;;;;;;5035146;28;20048;-92
2024/01/12 12:04:54;;;;;;;0.10;0.10;;;;;;;;;;5035269;28;20048;-90
2024/01/12 12:07:26;;;;;;;0.10;0.10;;;;;;;;;;5035246;28;20037;-91
2024/01/12 12:09:53;;;;;;;0.10;0.10;;;;;;;;;;5018458;28;20037;-90
2024/01/12 12:12:19;;;;;;;0.10;0.10;;;;;;;;;;5034883;28;20044;-87
2024/01/12 12:14:58;;;;;;;0.10;0.10;;;;;;;;;;5051075;28;20503;-89
2024/01/12 12:17:25;;;;;;;0.10;0.10;;;;;;;;;;5034292;28;20048;-89
2024/01/12 12:19:53;;;;;;;0.10;0.10;;;;;;;;;;5034057;28;20041;-89
2024/01/12 12:22:19;;;;;;;0.10;0.10;;;;;;;;;;5034493;28;20048;-88
2024/01/12 12:24:47;;;;;;;0.10;0.10;;;;;;;;;;5050953;28;20041;-87
2024/01/12 12:27:13;;;;;;;0.10;0.10;;;;;;;;;;5034862;28;20272;-94
2024/01/12 12:29:40;;;;;;;0.10;0.10;;;;;;;;;;5050884;28;20033;-88
2024/01/12 12:32:11;;;;;;;0.10;0.10;;;;;;;;;;5033929;28;20041;-88
2024/01/12 12:34:40;;;;;;;0.10;0.10;;;;;;;;;;5035627;28;20049;-88
2024/01/12 12:37:10;;;;;;;0.10;0.10;;;;;;;;;;5050589;28;20052;-88
2024/01/12 12:39:37;;;;;;;0.10;0.10;;;;;;;;;;5050547;28;20072;-88
2024/01/12 12:42:08;;;;;;;0.10;0.10;;;;;;;;;;5034129;28;20087;-88
2024/01/12 12:44:34;;;;;;;0.10;0.10;;;;;;;;;;5050541;28;20053;-88
2024/01/12 12:47:01;;;;;;;0.10;0.10;;;;;;;;;;5050478;28;20467;-87
2024/01/12 12:49:34;;;;;;;0.10;0.10;;;;;;;;;;5050764;28;20396;-88
2024/01/12 12:52:00;;;;;;;0.10;0.10;;;;;;;;;;5033927;28;20043;-88
2024/01/12 12:54:30;;;;;;;0.10;0.10;;;;;;;;;;5034111;28;20127;-87
2024/01/12 12:56:56;;;;;;;0.10;0.10;;;;;;;;;;5018140;28;20427;-88
2024/01/12 12:59:22;;;;;;;0.10;0.10;;;;;;;;;;5017609;28;20584;-87
2024/01/12 13:01:48;;;;;;;0.10;0.10;;;;;;;;;;5034230;28;20321;-88
2024/01/12 13:04:14;;;;;;;0.32;0.32;;;;;;;;;;5050407;28;20037;-88
2024/01/12 13:06:42;;;;;;;0.20;0.20;;;;;;;;;;5050333;28;20033;-87
2024/01/12 13:09:08;;;;;;;0.10;0.10;;;;;;;;;;5034297;28;20048;-88
2024/01/12 13:11:34;;;;;;;0.10;0.10;;;;;;;;;;5053183;28;20044;-88
2024/01/12 13:14:00;;;;;;;0.10;0.10;;;;;;;;;;5037819;28;20397;-86
2024/01/12 13:16:27;;;;;;;0.10;0.10;;;;;;;;;;5038305;28;20066;-86
2024/01/12 13:18:53;;;;;;;0.10;0.10;;;;;;;;;;5054509;28;20041;-85
2024/01/12 13:21:20;;;;;;;0.10;0.10;;;;;;;;;;5054493;28;20073;-88
2024/01/12 13:23:46;;;;;;;0.10;0.10;;;;;;;;;;5038573;28;20052;-87
2024/01/12 13:26:12;;;;;;;0.10;0.10;;;;;;;;;;5054086;28;20037;-86
2024/01/12 13:28:40;;;;;;;0.10;0.10;;;;;;;;;;5060425;28;20044;-95
2024/01/12 13:31:06;;;;;;;0.10;0.10;;;;;;;;;;5055357;28;20044;-84
2024/01/12 13:33:32;;;;;;;0.10;0.10;;;;;;;;;;5053475;28;20061;-85
2024/01/12 13:35:58;;;;;;;0.10;0.10;;;;;;;;;;5037153;28;20053;-84
2024/01/12 13:38:25;;;;;;;0.10;0.10;;;;;;;;;;5037301;28;20048;-84
2024/01/12 13:40:50;;;;;;;0.10;0.10;;;;;;;;;;5037036;28;20041;-83
2024/01/12 13:43:17;;;;;;;1.05;0.20;;;;;;;;;;5054703;28;20048;-84
2024/01/12 13:45:43;;;;;;;0.10;0.10;;;;;;;;;;5053734;28;20048;-84
2024/01/12 13:48:11;;;;;;;0.10;0.10;;;;;;;;;;5053332;28;20048;-83
2024/01/12 13:50:37;;;;;;;0.10;0.10;;;;;;;;;;5036903;28;20506;-85
2024/01/12 13:53:03;;;;;;;0.10;0.10;;;;;;;;;;5037353;28;20044;-86
2024/01/12 13:55:29;;;;;;;0.10;0.10;;;;;;;;;;5036601;28;20049;-86
2024/01/12 13:57:55;;;;;;;0.10;0.10;;;;;;;;;;5037133;28;20064;-86
2024/01/12 14:00:21;;;;;;;0.10;0.10;;;;;;;;;;5020525;28;20389;-86
2024/01/12 14:02:48;;;;;;;0.10;0.10;;;;;;;;;;5053167;28;20055;-87
2024/01/12 14:05:14;;;;;;;0.10;0.10;;;;;;;;;;5036964;28;20076;-85
2024/01/12 14:07:40;;;;;;;0.80;0.40;;;;;;;;;;5036461;28;20045;-85
2024/01/12 14:10:06;;;;;;;0.10;0.10;;;;;;;;;;5036713;28;20098;-85
2024/01/12 14:12:32;;;;;;;0.10;0.10;;;;;;;;;;5053499;28;20049;-85
2024/01/12 14:14:59;;;;;;;0.10;0.10;;;;;;;;;;5036767;28;20155;-85
2024/01/12 14:17:25;;;;;;;0.10;0.10;;;;;;;;;;5053772;28;20064;-96
2024/01/12 14:19:51;;;;;;;0.10;0.10;;;;;;;;;;5036663;28;20037;-86
2024/01/12 14:22:17;;;;;;;0.10;0.10;;;;;;;;;;5036849;28;20048;-86
2024/01/12 14:24:43;;;;;;;0.10;0.10;;;;;;;;;;5052853;28;20041;-85
2024/01/12 14:27:09;;;;;;;0.10;0.10;;;;;;;;;;5052851;28;20045;-85
2024/01/12 14:29:36;;;;;;;0.10;0.10;;;;;;;;;;5036639;28;20369;-87
2024/01/12 14:32:02;;;;;;;0.22;0.22;;;;;;;;;;5036005;28;20097;-85
2024/01/12 14:34:28;;;;;;;0.10;0.10;;;;;;;;;;5036438;28;20257;-85
2024/01/12 14:36:54;;;;;;;0.10;0.10;;;;;;;;;;5036127;28;20576;-86
2024/01/12 14:39:20;;;;;;;0.10;0.10;;;;;;;;;;5052339;28;20045;-85
2024/01/12 14:41:47;;;;;;;0.10;0.10;;;;;;;;;;5052602;28;20041;-85
2024/01/12 14:44:13;;;;;;;0.10;0.10;;;;;;;;;;5035840;28;20044;-85